METAR AND TAF INFORMATION
METAR FOR VEGT
ADDS - METARS form results

(1358 UTC 29 November 2020)
Data provider http://aviationweather.gov/metar/data/
 
METAR text: VEGT 291330Z 00000KT 3000 BR FEW020 20/18 Q1015 NOSIG
Conditions at: VEGT (GAUHATI (IN-AFB), IN) observed 1330 UTC 29 November 2020
Temperature: 20.0°C (68°F)
Dewpoint: 18.0°C (64°F) [RH = 88%]
Pressure (altimeter): 29.97 inches Hg (1015.0 mb)
Winds: calm
Visibility: 1.86 miles (2.99 km)
Ceiling: at least 12,000 feet AGL
Clouds: few clouds at 2000 feet AGL
Weather: BR  (mist)

METAR text: VEGT 291300Z 00000KT 3000 BR FEW020 21/18 Q1014 NOSIG
Conditions at: VEGT (GAUHATI (IN-AFB), IN) observed 1300 UTC 29 November 2020
Temperature: 21.0°C (70°F)
Dewpoint: 18.0°C (64°F) [RH = 83%]
Pressure (altimeter): 29.94 inches Hg (1014.0 mb)
Winds: calm
Visibility: 1.86 miles (2.99 km)
Ceiling: at least 12,000 feet AGL
Clouds: few clouds at 2000 feet AGL
Weather: BR  (mist)

Forecast for: VEGT (GAUHATI (IN-AFB), IN)
Text: TAF VEGT 291100Z 2912/2921 03005KT 5000 HZ FEW020
Forecast period: 1200 to 1300 UTC 29 November 2020
Forecast type: FROM: standard forecast or significant change
Winds: from the NNE (30 degrees) at 6 MPH (5 knots; 2.6 m/s)
Visibility: 3 miles (5 km)
Ceiling: at least 12,000 feet AGL
Clouds: few clouds at 2000 feet AGL
Weather: HZ  (haze)
Text: BECMG 2913/2915 00000KT 3000 BR FEW020 SCT100
Forecast period: 1300 to 2100 UTC 29 November 2020
Forecast type: BECOMING: Conditions expected to become as follows by 1500 UTC 29 November 2020
Winds: calm
Visibility: 1.86 miles (2.99 km)
Ceiling: at least 12,000 feet AGL
Clouds: few clouds at 2000 feet AGL
scattered clouds at 10000 feet AGL
Weather: BR  (mist)

 AIRPORT MAP

 RUNWAY INFORMATION
Runway 02 Runway length 9000 ft Runway width 150 ft
Runway elevation 162 ft Runway displaced threshold 0 ft Runway heading 23
Runway 20 Runway length 9000 ft Runway width 150 ft
Runway elevation 162 ft Runway displaced threshold 0 ft Runway heading 203

 AIRPORT FREQUENCIES
Type APP Name APP Frequency 123.3 MHZ
Type ATIS Name ATIS Frequency 126.6 MHZ
Type GND Name GND Frequency 121.9 MHZ
Type TWR Name TWR Frequency 118.75 MHZ

 AIRPORT NEAR NAVIGATION AIDS
Type VOR-DME Name Barapani Frequency 116000 KHZ
Type VOR-DME Name Guwahati Frequency 117600 KHZ
Type NDB Name Guwahati Frequency 360 KHZ



Powered by Virtual Airlines Manager [v2.6.2]